sensor_id;sensor_type;location;lat;lon;timestamp;P1;durP1;ratioP1;P2;durP2;ratioP2
67274;SDS011;55463;52.324;5.122;2023-06-22T00:01:49;6.28;;;4.88;;
67274;SDS011;55463;52.324;5.122;2023-06-22T00:04:15;6.97;;;4.63;;
67274;SDS011;55463;52.324;5.122;2023-06-22T00:06:40;11.02;;;5.10;;
67274;SDS011;55463;52.324;5.122;2023-06-22T00:09:06;8.60;;;5.32;;
67274;SDS011;55463;52.324;5.122;2023-06-22T00:11:32;7.65;;;5.60;;
67274;SDS011;55463;52.324;5.122;2023-06-22T00:13:58;8.07;;;5.20;;
67274;SDS011;55463;52.324;5.122;2023-06-22T00:16:24;6.85;;;5.13;;
67274;SDS011;55463;52.324;5.122;2023-06-22T00:18:49;8.73;;;5.22;;
67274;SDS011;55463;52.324;5.122;2023-06-22T00:21:15;9.63;;;5.43;;
67274;SDS011;55463;52.324;5.122;2023-06-22T00:23:40;10.98;;;5.93;;
67274;SDS011;55463;52.324;5.122;2023-06-22T00:26:06;9.13;;;5.20;;
67274;SDS011;55463;52.324;5.122;2023-06-22T00:28:31;7.80;;;4.90;;
67274;SDS011;55463;52.324;5.122;2023-06-22T00:30:57;7.68;;;5.30;;
67274;SDS011;55463;52.324;5.122;2023-06-22T00:33:22;7.10;;;4.95;;
67274;SDS011;55463;52.324;5.122;2023-06-22T00:35:48;6.40;;;4.82;;
67274;SDS011;55463;52.324;5.122;2023-06-22T00:38:13;8.90;;;4.72;;
67274;SDS011;55463;52.324;5.122;2023-06-22T00:40:38;5.85;;;4.40;;
67274;SDS011;55463;52.324;5.122;2023-06-22T00:43:04;7.72;;;4.72;;
67274;SDS011;55463;52.324;5.122;2023-06-22T00:45:30;5.50;;;4.15;;
67274;SDS011;55463;52.324;5.122;2023-06-22T00:47:57;5.90;;;4.70;;
67274;SDS011;55463;52.324;5.122;2023-06-22T00:50:23;6.70;;;4.90;;
67274;SDS011;55463;52.324;5.122;2023-06-22T00:52:51;9.20;;;5.00;;
67274;SDS011;55463;52.324;5.122;2023-06-22T00:55:19;7.22;;;4.72;;
67274;SDS011;55463;52.324;5.122;2023-06-22T00:57:46;9.35;;;4.82;;
67274;SDS011;55463;52.324;5.122;2023-06-22T01:00:12;7.95;;;5.03;;
67274;SDS011;55463;52.324;5.122;2023-06-22T01:02:38;8.02;;;5.28;;
67274;SDS011;55463;52.324;5.122;2023-06-22T01:05:04;9.40;;;5.45;;
67274;SDS011;55463;52.324;5.122;2023-06-22T01:12:48;8.95;;;5.18;;
67274;SDS011;55463;52.324;5.122;2023-06-22T01:15:49;6.32;;;5.35;;
67274;SDS011;55463;52.324;5.122;2023-06-22T01:18:21;7.97;;;5.55;;
67274;SDS011;55463;52.324;5.122;2023-06-22T01:20:55;14.50;;;6.30;;
67274;SDS011;55463;52.324;5.122;2023-06-22T01:23:29;8.80;;;5.88;;
67274;SDS011;55463;52.324;5.122;2023-06-22T01:28:47;8.48;;;5.65;;
67274;SDS011;55463;52.324;5.122;2023-06-22T01:31:16;10.98;;;6.63;;
67274;SDS011;55463;52.324;5.122;2023-06-22T01:33:44;15.75;;;7.30;;
67274;SDS011;55463;52.324;5.122;2023-06-22T01:36:13;13.63;;;7.47;;
67274;SDS011;55463;52.324;5.122;2023-06-22T01:38:39;12.60;;;8.02;;
67274;SDS011;55463;52.324;5.122;2023-06-22T01:41:07;12.15;;;9.05;;
67274;SDS011;55463;52.324;5.122;2023-06-22T01:43:32;12.10;;;9.57;;
67274;SDS011;55463;52.324;5.122;2023-06-22T01:46:00;11.63;;;7.63;;
67274;SDS011;55463;52.324;5.122;2023-06-22T01:48:27;14.07;;;8.60;;
67274;SDS011;55463;52.324;5.122;2023-06-22T01:50:53;15.55;;;8.93;;
67274;SDS011;55463;52.324;5.122;2023-06-22T01:53:20;12.85;;;8.65;;
67274;SDS011;55463;52.324;5.122;2023-06-22T01:55:47;13.45;;;9.05;;
67274;SDS011;55463;52.324;5.122;2023-06-22T01:58:12;16.63;;;8.93;;
67274;SDS011;55463;52.324;5.122;2023-06-22T02:00:38;16.05;;;9.30;;
67274;SDS011;55463;52.324;5.122;2023-06-22T02:03:13;17.35;;;9.35;;
67274;SDS011;55463;52.324;5.122;2023-06-22T02:05:44;12.98;;;8.32;;
67274;SDS011;55463;52.324;5.122;2023-06-22T02:08:17;17.77;;;8.88;;
67274;SDS011;55463;52.324;5.122;2023-06-22T02:10:46;12.27;;;8.27;;
67274;SDS011;55463;52.324;5.122;2023-06-22T02:13:14;11.38;;;8.15;;
67274;SDS011;55463;52.324;5.122;2023-06-22T02:15:41;12.65;;;9.00;;
67274;SDS011;55463;52.324;5.122;2023-06-22T02:18:07;13.65;;;9.82;;
67274;SDS011;55463;52.324;5.122;2023-06-22T02:20:32;12.32;;;7.45;;
67274;SDS011;55463;52.324;5.122;2023-06-22T02:23:01;16.50;;;9.57;;
67274;SDS011;55463;52.324;5.122;2023-06-22T02:25:26;15.98;;;11.32;;
67274;SDS011;55463;52.324;5.122;2023-06-22T02:27:51;12.60;;;8.10;;
67274;SDS011;55463;52.324;5.122;2023-06-22T02:30:17;17.33;;;11.63;;
67274;SDS011;55463;52.324;5.122;2023-06-22T02:32:43;14.50;;;8.80;;
67274;SDS011;55463;52.324;5.122;2023-06-22T02:35:11;17.17;;;10.13;;
67274;SDS011;55463;52.324;5.122;2023-06-22T02:37:36;13.45;;;9.35;;
67274;SDS011;55463;52.324;5.122;2023-06-22T02:40:09;15.75;;;11.15;;
67274;SDS011;55463;52.324;5.122;2023-06-22T02:42:35;16.13;;;9.77;;
67274;SDS011;55463;52.324;5.122;2023-06-22T02:45:02;13.85;;;9.50;;
67274;SDS011;55463;52.324;5.122;2023-06-22T02:47:27;22.05;;;11.25;;
67274;SDS011;55463;52.324;5.122;2023-06-22T02:49:53;15.85;;;9.13;;
67274;SDS011;55463;52.324;5.122;2023-06-22T02:52:18;15.32;;;8.73;;
67274;SDS011;55463;52.324;5.122;2023-06-22T02:54:44;19.05;;;9.93;;
67274;SDS011;55463;52.324;5.122;2023-06-22T02:57:11;15.07;;;9.02;;
67274;SDS011;55463;52.324;5.122;2023-06-22T02:59:38;14.75;;;9.80;;
67274;SDS011;55463;52.324;5.122;2023-06-22T03:02:05;16.00;;;9.65;;
67274;SDS011;55463;52.324;5.122;2023-06-22T03:04:31;13.63;;;9.18;;
67274;SDS011;55463;52.324;5.122;2023-06-22T03:06:56;18.80;;;10.73;;
67274;SDS011;55463;52.324;5.122;2023-06-22T03:09:26;26.52;;;15.30;;
67274;SDS011;55463;52.324;5.122;2023-06-22T03:11:52;28.15;;;13.25;;
67274;SDS011;55463;52.324;5.122;2023-06-22T03:14:18;17.75;;;11.90;;
67274;SDS011;55463;52.324;5.122;2023-06-22T03:16:44;18.73;;;10.35;;
67274;SDS011;55463;52.324;5.122;2023-06-22T03:19:09;18.15;;;11.40;;
67274;SDS011;55463;52.324;5.122;2023-06-22T03:21:35;25.55;;;14.25;;
67274;SDS011;55463;52.324;5.122;2023-06-22T03:24:02;21.30;;;13.38;;
67274;SDS011;55463;52.324;5.122;2023-06-22T03:26:27;19.98;;;12.68;;
67274;SDS011;55463;52.324;5.122;2023-06-22T03:28:53;19.20;;;11.05;;
67274;SDS011;55463;52.324;5.122;2023-06-22T03:31:18;19.60;;;11.25;;
67274;SDS011;55463;52.324;5.122;2023-06-22T03:33:46;25.02;;;14.85;;
67274;SDS011;55463;52.324;5.122;2023-06-22T03:36:14;24.70;;;13.50;;
67274;SDS011;55463;52.324;5.122;2023-06-22T03:38:43;22.77;;;13.30;;
67274;SDS011;55463;52.324;5.122;2023-06-22T03:41:12;20.85;;;13.75;;
67274;SDS011;55463;52.324;5.122;2023-06-22T03:43:38;18.95;;;12.85;;
67274;SDS011;55463;52.324;5.122;2023-06-22T03:46:04;19.17;;;12.27;;
67274;SDS011;55463;52.324;5.122;2023-06-22T03:48:30;22.25;;;12.77;;
67274;SDS011;55463;52.324;5.122;2023-06-22T03:50:56;23.30;;;13.07;;
67274;SDS011;55463;52.324;5.122;2023-06-22T03:53:21;20.35;;;13.02;;
67274;SDS011;55463;52.324;5.122;2023-06-22T03:55:50;25.85;;;14.23;;
67274;SDS011;55463;52.324;5.122;2023-06-22T03:58:17;20.70;;;13.98;;
67274;SDS011;55463;52.324;5.122;2023-06-22T04:00:44;28.00;;;16.80;;
67274;SDS011;55463;52.324;5.122;2023-06-22T04:03:13;30.25;;;16.80;;
67274;SDS011;55463;52.324;5.122;2023-06-22T04:05:40;25.38;;;12.95;;
67274;SDS011;55463;52.324;5.122;2023-06-22T04:08:06;18.42;;;11.80;;
67274;SDS011;55463;52.324;5.122;2023-06-22T04:10:31;23.20;;;12.77;;
67274;SDS011;55463;52.324;5.122;2023-06-22T04:12:57;21.27;;;14.60;;
67274;SDS011;55463;52.324;5.122;2023-06-22T04:15:22;19.73;;;12.95;;
67274;SDS011;55463;52.324;5.122;2023-06-22T04:17:48;29.13;;;17.35;;
67274;SDS011;55463;52.324;5.122;2023-06-22T04:20:13;32.35;;;18.65;;
67274;SDS011;55463;52.324;5.122;2023-06-22T04:22:39;30.23;;;18.00;;
67274;SDS011;55463;52.324;5.122;2023-06-22T04:25:05;32.88;;;16.63;;
67274;SDS011;55463;52.324;5.122;2023-06-22T04:27:32;28.90;;;17.85;;
67274;SDS011;55463;52.324;5.122;2023-06-22T04:30:02;33.78;;;19.50;;
67274;SDS011;55463;52.324;5.122;2023-06-22T04:32:35;25.50;;;15.40;;
67274;SDS011;55463;52.324;5.122;2023-06-22T04:35:01;33.20;;;19.63;;
67274;SDS011;55463;52.324;5.122;2023-06-22T04:37:29;40.85;;;21.17;;
67274;SDS011;55463;52.324;5.122;2023-06-22T04:39:55;38.35;;;20.90;;
67274;SDS011;55463;52.324;5.122;2023-06-22T04:42:20;41.35;;;23.25;;
67274;SDS011;55463;52.324;5.122;2023-06-22T04:44:46;41.13;;;21.83;;
67274;SDS011;55463;52.324;5.122;2023-06-22T04:47:11;36.33;;;21.98;;
67274;SDS011;55463;52.324;5.122;2023-06-22T04:49:37;33.40;;;21.33;;
67274;SDS011;55463;52.324;5.122;2023-06-22T04:52:03;34.65;;;21.77;;
67274;SDS011;55463;52.324;5.122;2023-06-22T04:54:30;43.90;;;21.77;;
67274;SDS011;55463;52.324;5.122;2023-06-22T04:56:58;35.25;;;20.35;;
67274;SDS011;55463;52.324;5.122;2023-06-22T04:59:24;33.25;;;21.25;;
67274;SDS011;55463;52.324;5.122;2023-06-22T05:01:58;33.17;;;21.60;;
67274;SDS011;55463;52.324;5.122;2023-06-22T05:04:25;32.28;;;19.15;;
67274;SDS011;55463;52.324;5.122;2023-06-22T05:06:52;35.35;;;20.13;;
67274;SDS011;55463;52.324;5.122;2023-06-22T05:09:18;31.75;;;19.23;;
67274;SDS011;55463;52.324;5.122;2023-06-22T05:11:44;31.33;;;19.75;;
67274;SDS011;55463;52.324;5.122;2023-06-22T05:14:10;32.40;;;20.90;;
67274;SDS011;55463;52.324;5.122;2023-06-22T05:16:36;28.90;;;19.08;;
67274;SDS011;55463;52.324;5.122;2023-06-22T05:19:01;35.95;;;21.17;;
67274;SDS011;55463;52.324;5.122;2023-06-22T05:21:28;37.30;;;20.67;;
67274;SDS011;55463;52.324;5.122;2023-06-22T05:23:55;28.50;;;18.55;;
67274;SDS011;55463;52.324;5.122;2023-06-22T05:26:25;30.42;;;20.90;;
67274;SDS011;55463;52.324;5.122;2023-06-22T05:28:51;33.03;;;18.95;;
67274;SDS011;55463;52.324;5.122;2023-06-22T05:31:18;37.88;;;19.73;;
67274;SDS011;55463;52.324;5.122;2023-06-22T05:33:47;30.90;;;19.70;;
67274;SDS011;55463;52.324;5.122;2023-06-22T05:36:14;31.73;;;20.42;;
67274;SDS011;55463;52.324;5.122;2023-06-22T05:38:40;32.35;;;20.27;;
67274;SDS011;55463;52.324;5.122;2023-06-22T05:41:06;34.75;;;21.40;;
67274;SDS011;55463;52.324;5.122;2023-06-22T05:43:32;38.92;;;20.58;;
67274;SDS011;55463;52.324;5.122;2023-06-22T05:45:58;31.02;;;21.05;;
67274;SDS011;55463;52.324;5.122;2023-06-22T05:48:24;30.23;;;20.35;;
67274;SDS011;55463;52.324;5.122;2023-06-22T05:50:50;31.85;;;20.95;;
67274;SDS011;55463;52.324;5.122;2023-06-22T05:53:15;34.28;;;21.40;;
67274;SDS011;55463;52.324;5.122;2023-06-22T05:55:40;32.85;;;21.67;;
67274;SDS011;55463;52.324;5.122;2023-06-22T05:58:07;33.95;;;22.33;;
67274;SDS011;55463;52.324;5.122;2023-06-22T06:00:33;31.52;;;21.65;;
67274;SDS011;55463;52.324;5.122;2023-06-22T06:02:58;35.33;;;22.10;;
67274;SDS011;55463;52.324;5.122;2023-06-22T06:05:28;37.70;;;22.08;;
67274;SDS011;55463;52.324;5.122;2023-06-22T06:07:56;34.65;;;21.77;;
67274;SDS011;55463;52.324;5.122;2023-06-22T06:10:22;28.73;;;19.77;;
67274;SDS011;55463;52.324;5.122;2023-06-22T06:12:48;28.45;;;19.35;;
67274;SDS011;55463;52.324;5.122;2023-06-22T06:15:13;31.35;;;20.52;;
67274;SDS011;55463;52.324;5.122;2023-06-22T06:17:46;32.45;;;21.10;;
67274;SDS011;55463;52.324;5.122;2023-06-22T06:20:15;30.35;;;19.65;;
67274;SDS011;55463;52.324;5.122;2023-06-22T06:22:43;31.85;;;18.67;;
67274;SDS011;55463;52.324;5.122;2023-06-22T06:25:08;28.10;;;19.05;;
67274;SDS011;55463;52.324;5.122;2023-06-22T06:27:34;29.55;;;19.65;;
67274;SDS011;55463;52.324;5.122;2023-06-22T06:29:59;29.33;;;18.98;;
67274;SDS011;55463;52.324;5.122;2023-06-22T06:32:25;29.90;;;20.30;;
67274;SDS011;55463;52.324;5.122;2023-06-22T06:34:50;28.85;;;19.08;;
67274;SDS011;55463;52.324;5.122;2023-06-22T06:37:16;27.88;;;18.48;;
67274;SDS011;55463;52.324;5.122;2023-06-22T06:39:42;37.40;;;23.08;;
67274;SDS011;55463;52.324;5.122;2023-06-22T06:42:07;29.92;;;21.20;;
67274;SDS011;55463;52.324;5.122;2023-06-22T06:44:33;27.92;;;19.88;;
67274;SDS011;55463;52.324;5.122;2023-06-22T06:46:58;28.98;;;18.27;;
67274;SDS011;55463;52.324;5.122;2023-06-22T06:49:23;29.10;;;19.73;;
67274;SDS011;55463;52.324;5.122;2023-06-22T06:51:49;28.70;;;19.08;;
67274;SDS011;55463;52.324;5.122;2023-06-22T06:54:15;32.28;;;19.67;;
67274;SDS011;55463;52.324;5.122;2023-06-22T06:56:40;30.30;;;18.60;;
67274;SDS011;55463;52.324;5.122;2023-06-22T06:59:09;30.15;;;18.77;;
67274;SDS011;55463;52.324;5.122;2023-06-22T07:01:35;23.52;;;16.92;;
67274;SDS011;55463;52.324;5.122;2023-06-22T07:04:00;30.63;;;17.08;;
67274;SDS011;55463;52.324;5.122;2023-06-22T07:06:26;22.88;;;15.95;;
67274;SDS011;55463;52.324;5.122;2023-06-22T07:08:54;24.50;;;16.05;;
67274;SDS011;55463;52.324;5.122;2023-06-22T07:11:20;24.02;;;15.95;;
67274;SDS011;55463;52.324;5.122;2023-06-22T07:13:45;23.73;;;13.88;;
67274;SDS011;55463;52.324;5.122;2023-06-22T07:16:11;23.15;;;15.77;;
67274;SDS011;55463;52.324;5.122;2023-06-22T07:18:36;21.98;;;15.75;;
67274;SDS011;55463;52.324;5.122;2023-06-22T07:21:02;27.83;;;14.18;;
67274;SDS011;55463;52.324;5.122;2023-06-22T07:23:31;23.30;;;13.73;;
67274;SDS011;55463;52.324;5.122;2023-06-22T07:25:56;18.70;;;13.07;;
67274;SDS011;55463;52.324;5.122;2023-06-22T07:28:22;22.23;;;13.75;;
67274;SDS011;55463;52.324;5.122;2023-06-22T07:30:47;18.42;;;12.55;;
67274;SDS011;55463;52.324;5.122;2023-06-22T07:33:13;20.98;;;12.95;;
67274;SDS011;55463;52.324;5.122;2023-06-22T07:35:38;17.20;;;12.43;;
67274;SDS011;55463;52.324;5.122;2023-06-22T07:38:04;18.67;;;12.70;;
67274;SDS011;55463;52.324;5.122;2023-06-22T07:40:30;17.40;;;11.50;;
67274;SDS011;55463;52.324;5.122;2023-06-22T07:42:55;16.70;;;11.70;;
67274;SDS011;55463;52.324;5.122;2023-06-22T07:45:20;17.77;;;10.52;;
67274;SDS011;55463;52.324;5.122;2023-06-22T07:47:46;19.58;;;12.95;;
67274;SDS011;55463;52.324;5.122;2023-06-22T07:50:11;16.75;;;11.40;;
67274;SDS011;55463;52.324;5.122;2023-06-22T07:52:37;17.42;;;11.77;;
67274;SDS011;55463;52.324;5.122;2023-06-22T07:55:02;17.08;;;12.18;;
67274;SDS011;55463;52.324;5.122;2023-06-22T07:57:29;16.23;;;10.93;;
67274;SDS011;55463;52.324;5.122;2023-06-22T08:00:02;17.23;;;11.80;;
67274;SDS011;55463;52.324;5.122;2023-06-22T08:02:37;16.08;;;11.60;;
67274;SDS011;55463;52.324;5.122;2023-06-22T08:05:02;23.65;;;12.45;;
67274;SDS011;55463;52.324;5.122;2023-06-22T08:07:27;13.60;;;9.50;;
67274;SDS011;55463;52.324;5.122;2023-06-22T08:09:53;18.10;;;10.77;;
67274;SDS011;55463;52.324;5.122;2023-06-22T08:12:18;13.50;;;10.15;;
67274;SDS011;55463;52.324;5.122;2023-06-22T08:14:44;13.10;;;9.75;;
67274;SDS011;55463;52.324;5.122;2023-06-22T08:17:11;13.15;;;10.23;;
67274;SDS011;55463;52.324;5.122;2023-06-22T08:19:37;16.05;;;12.30;;
67274;SDS011;55463;52.324;5.122;2023-06-22T08:22:02;16.08;;;11.27;;
67274;SDS011;55463;52.324;5.122;2023-06-22T08:24:28;14.30;;;10.32;;
67274;SDS011;55463;52.324;5.122;2023-06-22T08:26:55;17.77;;;11.13;;
67274;SDS011;55463;52.324;5.122;2023-06-22T08:29:21;12.70;;;9.27;;
67274;SDS011;55463;52.324;5.122;2023-06-22T08:31:46;15.27;;;11.52;;
67274;SDS011;55463;52.324;5.122;2023-06-22T08:34:12;13.45;;;9.82;;
67274;SDS011;55463;52.324;5.122;2023-06-22T08:36:37;14.02;;;9.90;;
67274;SDS011;55463;52.324;5.122;2023-06-22T08:39:10;16.27;;;9.52;;
67274;SDS011;55463;52.324;5.122;2023-06-22T08:41:35;13.30;;;9.38;;
67274;SDS011;55463;52.324;5.122;2023-06-22T08:44:01;16.25;;;10.20;;
67274;SDS011;55463;52.324;5.122;2023-06-22T08:46:27;13.63;;;9.63;;
67274;SDS011;55463;52.324;5.122;2023-06-22T08:48:56;13.43;;;8.98;;
67274;SDS011;55463;52.324;5.122;2023-06-22T08:51:26;14.73;;;10.53;;
67274;SDS011;55463;52.324;5.122;2023-06-22T08:53:52;13.43;;;9.75;;
67274;SDS011;55463;52.324;5.122;2023-06-22T08:56:17;15.93;;;9.60;;
67274;SDS011;55463;52.324;5.122;2023-06-22T08:58:43;14.85;;;9.98;;
67274;SDS011;55463;52.324;5.122;2023-06-22T09:01:08;16.30;;;9.95;;
67274;SDS011;55463;52.324;5.122;2023-06-22T09:03:34;11.85;;;9.13;;
67274;SDS011;55463;52.324;5.122;2023-06-22T09:06:01;14.70;;;8.43;;
67274;SDS011;55463;52.324;5.122;2023-06-22T09:08:27;14.63;;;9.15;;
67274;SDS011;55463;52.324;5.122;2023-06-22T09:10:52;14.80;;;9.55;;
67274;SDS011;55463;52.324;5.122;2023-06-22T09:13:17;14.77;;;8.60;;
67274;SDS011;55463;52.324;5.122;2023-06-22T09:15:43;8.77;;;7.20;;
67274;SDS011;55463;52.324;5.122;2023-06-22T09:18:10;12.05;;;6.93;;
67274;SDS011;55463;52.324;5.122;2023-06-22T09:20:36;11.05;;;7.28;;
67274;SDS011;55463;52.324;5.122;2023-06-22T09:23:01;10.13;;;7.65;;
67274;SDS011;55463;52.324;5.122;2023-06-22T09:25:27;10.25;;;6.85;;
67274;SDS011;55463;52.324;5.122;2023-06-22T09:27:52;12.25;;;7.82;;
67274;SDS011;55463;52.324;5.122;2023-06-22T09:30:18;11.70;;;6.45;;
67274;SDS011;55463;52.324;5.122;2023-06-22T09:32:44;10.63;;;6.20;;
67274;SDS011;55463;52.324;5.122;2023-06-22T09:35:09;11.30;;;6.35;;
67274;SDS011;55463;52.324;5.122;2023-06-22T09:37:35;9.60;;;6.25;;
67274;SDS011;55463;52.324;5.122;2023-06-22T09:40:01;10.63;;;6.43;;
67274;SDS011;55463;52.324;5.122;2023-06-22T09:42:33;8.48;;;6.03;;
67274;SDS011;55463;52.324;5.122;2023-06-22T09:44:59;12.57;;;5.72;;
67274;SDS011;55463;52.324;5.122;2023-06-22T09:47:26;10.98;;;6.28;;
67274;SDS011;55463;52.324;5.122;2023-06-22T09:49:53;12.35;;;5.95;;
67274;SDS011;55463;52.324;5.122;2023-06-22T09:52:20;9.55;;;6.75;;
67274;SDS011;55463;52.324;5.122;2023-06-22T09:54:46;9.43;;;5.50;;
67274;SDS011;55463;52.324;5.122;2023-06-22T09:57:11;12.70;;;6.05;;
67274;SDS011;55463;52.324;5.122;2023-06-22T09:59:37;14.63;;;9.13;;
67274;SDS011;55463;52.324;5.122;2023-06-22T10:02:05;15.13;;;11.55;;
67274;SDS011;55463;52.324;5.122;2023-06-22T10:04:31;16.55;;;11.02;;
67274;SDS011;55463;52.324;5.122;2023-06-22T10:06:56;18.52;;;10.48;;
67274;SDS011;55463;52.324;5.122;2023-06-22T10:09:21;19.25;;;10.07;;
67274;SDS011;55463;52.324;5.122;2023-06-22T10:11:47;14.27;;;11.30;;
67274;SDS011;55463;52.324;5.122;2023-06-22T10:14:12;13.70;;;10.05;;
67274;SDS011;55463;52.324;5.122;2023-06-22T10:16:38;19.65;;;11.93;;
67274;SDS011;55463;52.324;5.122;2023-06-22T10:19:03;14.38;;;10.88;;
67274;SDS011;55463;52.324;5.122;2023-06-22T10:21:29;16.42;;;10.73;;
67274;SDS011;55463;52.324;5.122;2023-06-22T10:23:54;14.27;;;10.82;;
67274;SDS011;55463;52.324;5.122;2023-06-22T10:26:20;20.10;;;12.68;;
67274;SDS011;55463;52.324;5.122;2023-06-22T10:28:46;19.13;;;11.45;;
67274;SDS011;55463;52.324;5.122;2023-06-22T10:31:11;14.95;;;11.65;;
67274;SDS011;55463;52.324;5.122;2023-06-22T10:33:37;14.48;;;11.15;;
67274;SDS011;55463;52.324;5.122;2023-06-22T10:36:02;17.13;;;11.20;;
67274;SDS011;55463;52.324;5.122;2023-06-22T10:38:28;15.02;;;10.43;;
67274;SDS011;55463;52.324;5.122;2023-06-22T10:40:53;15.02;;;10.68;;
67274;SDS011;55463;52.324;5.122;2023-06-22T10:43:18;17.42;;;11.50;;
67274;SDS011;55463;52.324;5.122;2023-06-22T10:45:44;15.90;;;10.98;;
67274;SDS011;55463;52.324;5.122;2023-06-22T10:48:10;13.98;;;10.25;;
67274;SDS011;55463;52.324;5.122;2023-06-22T10:50:35;14.40;;;9.82;;
67274;SDS011;55463;52.324;5.122;2023-06-22T10:53:01;14.15;;;11.05;;
67274;SDS011;55463;52.324;5.122;2023-06-22T10:55:26;14.15;;;10.63;;
67274;SDS011;55463;52.324;5.122;2023-06-22T10:57:52;14.93;;;11.80;;
67274;SDS011;55463;52.324;5.122;2023-06-22T11:00:17;14.00;;;12.23;;
67274;SDS011;55463;52.324;5.122;2023-06-22T11:02:43;15.18;;;11.48;;
67274;SDS011;55463;52.324;5.122;2023-06-22T11:05:09;15.10;;;10.82;;
67274;SDS011;55463;52.324;5.122;2023-06-22T11:07:36;18.83;;;12.38;;
67274;SDS011;55463;52.324;5.122;2023-06-22T11:10:02;15.60;;;10.70;;
67274;SDS011;55463;52.324;5.122;2023-06-22T11:12:28;15.05;;;11.88;;
67274;SDS011;55463;52.324;5.122;2023-06-22T11:14:54;22.15;;;12.85;;
67274;SDS011;55463;52.324;5.122;2023-06-22T11:17:22;16.73;;;11.35;;
67274;SDS011;55463;52.324;5.122;2023-06-22T11:19:47;20.98;;;12.32;;
67274;SDS011;55463;52.324;5.122;2023-06-22T11:22:13;17.10;;;11.82;;
67274;SDS011;55463;52.324;5.122;2023-06-22T11:24:38;17.00;;;10.77;;
67274;SDS011;55463;52.324;5.122;2023-06-22T11:27:04;17.17;;;12.18;;
67274;SDS011;55463;52.324;5.122;2023-06-22T11:29:29;17.42;;;12.48;;
67274;SDS011;55463;52.324;5.122;2023-06-22T11:31:55;16.88;;;11.40;;
67274;SDS011;55463;52.324;5.122;2023-06-22T11:34:21;13.90;;;11.15;;
67274;SDS011;55463;52.324;5.122;2023-06-22T11:36:46;17.67;;;12.63;;
67274;SDS011;55463;52.324;5.122;2023-06-22T11:39:13;14.82;;;10.77;;
67274;SDS011;55463;52.324;5.122;2023-06-22T11:41:40;17.48;;;12.05;;
67274;SDS011;55463;52.324;5.122;2023-06-22T11:44:06;20.30;;;11.25;;
67274;SDS011;55463;52.324;5.122;2023-06-22T11:46:32;14.77;;;11.02;;
67274;SDS011;55463;52.324;5.122;2023-06-22T11:48:57;13.70;;;10.55;;
67274;SDS011;55463;52.324;5.122;2023-06-22T11:51:23;14.27;;;10.88;;
67274;SDS011;55463;52.324;5.122;2023-06-22T11:53:48;13.65;;;9.90;;
67274;SDS011;55463;52.324;5.122;2023-06-22T11:56:14;17.33;;;12.00;;
67274;SDS011;55463;52.324;5.122;2023-06-22T11:58:39;16.38;;;11.05;;
67274;SDS011;55463;52.324;5.122;2023-06-22T12:01:04;13.60;;;9.35;;
67274;SDS011;55463;52.324;5.122;2023-06-22T12:03:30;12.75;;;9.93;;
67274;SDS011;55463;52.324;5.122;2023-06-22T12:05:55;14.00;;;10.57;;
67274;SDS011;55463;52.324;5.122;2023-06-22T12:08:21;15.55;;;12.32;;
67274;SDS011;55463;52.324;5.122;2023-06-22T12:10:47;13.88;;;11.13;;
67274;SDS011;55463;52.324;5.122;2023-06-22T12:13:14;13.23;;;10.93;;
67274;SDS011;55463;52.324;5.122;2023-06-22T12:15:40;15.65;;;10.20;;
67274;SDS011;55463;52.324;5.122;2023-06-22T12:18:05;15.40;;;10.25;;
67274;SDS011;55463;52.324;5.122;2023-06-22T12:20:31;16.80;;;11.57;;
67274;SDS011;55463;52.324;5.122;2023-06-22T12:22:57;16.67;;;10.93;;
67274;SDS011;55463;52.324;5.122;2023-06-22T12:25:23;16.23;;;10.65;;
67274;SDS011;55463;52.324;5.122;2023-06-22T12:27:48;10.90;;;9.05;;
67274;SDS011;55463;52.324;5.122;2023-06-22T12:30:15;14.23;;;9.23;;
67274;SDS011;55463;52.324;5.122;2023-06-22T12:32:41;13.00;;;9.57;;
67274;SDS011;55463;52.324;5.122;2023-06-22T12:35:07;17.58;;;10.63;;
67274;SDS011;55463;52.324;5.122;2023-06-22T12:37:38;11.43;;;8.10;;
67274;SDS011;55463;52.324;5.122;2023-06-22T12:40:04;13.88;;;8.25;;
67274;SDS011;55463;52.324;5.122;2023-06-22T12:42:30;14.68;;;9.30;;
67274;SDS011;55463;52.324;5.122;2023-06-22T12:44:55;11.05;;;8.05;;
67274;SDS011;55463;52.324;5.122;2023-06-22T12:47:20;9.43;;;7.78;;
67274;SDS011;55463;52.324;5.122;2023-06-22T12:49:46;10.60;;;6.05;;
67274;SDS011;55463;52.324;5.122;2023-06-22T12:52:12;5.28;;;4.35;;
67274;SDS011;55463;52.324;5.122;2023-06-22T12:54:37;5.70;;;4.15;;
67274;SDS011;55463;52.324;5.122;2023-06-22T12:57:02;6.05;;;4.28;;
67274;SDS011;55463;52.324;5.122;2023-06-22T12:59:28;6.97;;;4.22;;
67274;SDS011;55463;52.324;5.122;2023-06-22T13:01:53;8.23;;;4.47;;
67274;SDS011;55463;52.324;5.122;2023-06-22T13:04:19;5.53;;;4.03;;
67274;SDS011;55463;52.324;5.122;2023-06-22T13:06:46;6.63;;;4.45;;
67274;SDS011;55463;52.324;5.122;2023-06-22T13:09:13;6.65;;;4.47;;
67274;SDS011;55463;52.324;5.122;2023-06-22T13:11:39;8.75;;;5.13;;
67274;SDS011;55463;52.324;5.122;2023-06-22T13:14:05;7.30;;;4.53;;
67274;SDS011;55463;52.324;5.122;2023-06-22T13:16:30;6.95;;;4.80;;
67274;SDS011;55463;52.324;5.122;2023-06-22T13:18:55;7.22;;;4.55;;
67274;SDS011;55463;52.324;5.122;2023-06-22T13:21:21;9.57;;;5.10;;
67274;SDS011;55463;52.324;5.122;2023-06-22T13:23:46;6.85;;;4.60;;
67274;SDS011;55463;52.324;5.122;2023-06-22T13:26:12;10.73;;;5.15;;
67274;SDS011;55463;52.324;5.122;2023-06-22T13:28:37;9.88;;;5.65;;
67274;SDS011;55463;52.324;5.122;2023-06-22T13:31:02;7.50;;;4.85;;
67274;SDS011;55463;52.324;5.122;2023-06-22T13:33:28;6.93;;;4.80;;
67274;SDS011;55463;52.324;5.122;2023-06-22T13:35:53;6.60;;;4.68;;
67274;SDS011;55463;52.324;5.122;2023-06-22T13:38:19;6.40;;;5.00;;
67274;SDS011;55463;52.324;5.122;2023-06-22T13:40:44;6.57;;;5.00;;
67274;SDS011;55463;52.324;5.122;2023-06-22T13:43:10;5.47;;;4.78;;
67274;SDS011;55463;52.324;5.122;2023-06-22T13:45:35;9.35;;;4.97;;
67274;SDS011;55463;52.324;5.122;2023-06-22T13:48:00;7.25;;;4.95;;
67274;SDS011;55463;52.324;5.122;2023-06-22T13:50:26;6.72;;;5.72;;
67274;SDS011;55463;52.324;5.122;2023-06-22T13:52:51;10.00;;;5.05;;
67274;SDS011;55463;52.324;5.122;2023-06-22T13:55:17;9.88;;;5.85;;
67274;SDS011;55463;52.324;5.122;2023-06-22T13:57:42;9.98;;;5.80;;
67274;SDS011;55463;52.324;5.122;2023-06-22T14:00:08;7.13;;;4.90;;
67274;SDS011;55463;52.324;5.122;2023-06-22T14:02:34;8.38;;;5.53;;
67274;SDS011;55463;52.324;5.122;2023-06-22T14:04:59;7.43;;;5.00;;
67274;SDS011;55463;52.324;5.122;2023-06-22T14:07:25;6.32;;;4.63;;
67274;SDS011;55463;52.324;5.122;2023-06-22T14:09:51;9.07;;;5.55;;
67274;SDS011;55463;52.324;5.122;2023-06-22T14:12:18;8.82;;;5.80;;
67274;SDS011;55463;52.324;5.122;2023-06-22T14:14:44;9.85;;;5.72;;
67274;SDS011;55463;52.324;5.122;2023-06-22T14:17:09;9.15;;;5.40;;
67274;SDS011;55463;52.324;5.122;2023-06-22T14:19:35;11.38;;;6.50;;
67274;SDS011;55463;52.324;5.122;2023-06-22T14:22:01;12.63;;;6.10;;
67274;SDS011;55463;52.324;5.122;2023-06-22T14:24:27;8.65;;;5.47;;
67274;SDS011;55463;52.324;5.122;2023-06-22T14:26:53;6.82;;;5.55;;
67274;SDS011;55463;52.324;5.122;2023-06-22T14:29:19;10.25;;;6.28;;
67274;SDS011;55463;52.324;5.122;2023-06-22T14:31:45;7.95;;;5.82;;
67274;SDS011;55463;52.324;5.122;2023-06-22T14:34:11;8.43;;;5.53;;